地図

経路データ

SID SEASON NUMBER BASIN SUBBASIN NAME ISO_TIME NATURE LAT LON WMO_WIND WMO_PRES WMO_AGENCY TRACK_TYPE DIST2LAND LANDFALL IFLAG USA_AGENCY USA_ATCF_ID USA_LAT USA_LON USA_RECORD USA_STATUS USA_WIND USA_PRES USA_SSHS USA_R34_NE USA_R34_SE USA_R34_SW USA_R34_NW USA_R50_NE USA_R50_SE USA_R50_SW USA_R50_NW USA_R64_NE USA_R64_SE USA_R64_SW USA_R64_NW USA_POCI USA_ROCI USA_RMW USA_EYE TOKYO_LAT TOKYO_LON TOKYO_GRADE TOKYO_WIND TOKYO_PRES TOKYO_R50_DIR TOKYO_R50_LONG TOKYO_R50_SHORT TOKYO_R30_DIR TOKYO_R30_LONG TOKYO_R30_SHORT TOKYO_LAND CMA_LAT CMA_LON CMA_CAT CMA_WIND CMA_PRES HKO_LAT HKO_LON HKO_CAT HKO_WIND HKO_PRES NEWDELHI_LAT NEWDELHI_LON NEWDELHI_GRADE NEWDELHI_WIND NEWDELHI_PRES NEWDELHI_CI NEWDELHI_DP NEWDELHI_POCI REUNION_LAT REUNION_LON REUNION_TYPE REUNION_WIND REUNION_PRES REUNION_TNUM REUNION_CI REUNION_RMW REUNION_R34_NE REUNION_R34_SE REUNION_R34_SW REUNION_R34_NW REUNION_R50_NE REUNION_R50_SE REUNION_R50_SW REUNION_R50_NW REUNION_R64_NE REUNION_R64_SE REUNION_R64_SW REUNION_R64_NW BOM_LAT BOM_LON BOM_TYPE BOM_WIND BOM_PRES BOM_TNUM BOM_CI BOM_RMW BOM_R34_NE BOM_R34_SE BOM_R34_SW BOM_R34_NW BOM_R50_NE BOM_R50_SE BOM_R50_SW BOM_R50_NW BOM_R64_NE BOM_R64_SE BOM_R64_SW BOM_R64_NW BOM_ROCI BOM_POCI BOM_EYE BOM_POS_METHOD BOM_PRES_METHOD NADI_LAT NADI_LON NADI_CAT NADI_WIND NADI_PRES WELLINGTON_LAT WELLINGTON_LON WELLINGTON_WIND WELLINGTON_PRES DS824_LAT DS824_LON DS824_STAGE DS824_WIND DS824_PRES TD9636_LAT TD9636_LON TD9636_STAGE TD9636_WIND TD9636_PRES TD9635_LAT TD9635_LON TD9635_WIND TD9635_PRES TD9635_ROCI NEUMANN_LAT NEUMANN_LON NEUMANN_CLASS NEUMANN_WIND NEUMANN_PRES MLC_LAT MLC_LON MLC_CLASS MLC_WIND MLC_PRES USA_GUST BOM_GUST BOM_GUST_PER REUNION_GUST REUNION_GUST_PER USA_SEAHGT USA_SEARAD_NE USA_SEARAD_SE USA_SEARAD_SW USA_SEARAD_NW STORM_SPEED STORM_DIR
1950215N25087 1950 48 NI BB NOT_NAMED 1950-08-02 18:00:00 TS 24.7000 87.0000 main 0 0 O________O____ jtwc_io IO081950 24.7000 87.0000 -1 24.7000 87.0000 TC 3 143
1950215N25087 1950 48 NI BB NOT_NAMED 1950-08-02 21:00:00 TS 24.5625 87.1176 main 0 0 P________P____ IO081950 24.5625 87.1176 -1 24.5625 87.1176 TC 4 149
1950215N25087 1950 48 NI BB NOT_NAMED 1950-08-03 00:00:00 TS 24.4000 87.2000 main 0 0 O________O____ jtwc_io IO081950 24.4000 87.2000 -1 24.4000 87.2000 TC 25 4 166
1950215N25087 1950 48 NI BB NOT_NAMED 1950-08-03 03:00:00 TS 24.1889 87.2200 main 0 0 P________PO___ IO081950 24.1875 87.2225 -1 24.1875 87.2225 TC 25 24.2000 87.2000 1 5 0
1950215N25087 1950 48 NI BB NOT_NAMED 1950-08-03 06:00:00 TS 23.8841 87.1960 main 0 0 O________OP___ jtwc_io IO081950 23.9000 87.2000 -1 23.9000 87.2000 TC 25 23.8203 87.1798 1 7 185
1950215N25087 1950 48 NI BB NOT_NAMED 1950-08-03 09:00:00 TS 23.4870 87.1657 main 0 0 P________PP___ IO081950 23.5000 87.1725 -1 23.5000 87.1725 TC 25 23.4524 87.1477 1 8 187
1950215N25087 1950 48 NI BB NOT_NAMED 1950-08-03 12:00:00 TS 23.1028 87.0972 main 0 0 O________OP___ jtwc_io IO081950 23.1000 87.1000 -1 23.1000 87.1000 TC 25 23.1084 87.0917 1 7 195
1950215N25087 1950 48 NI BB NOT_NAMED 1950-08-03 15:00:00 TS 22.8183 86.9767 main 0 0 P________PO___ IO081950 22.8275 86.9650 -1 22.8275 86.9650 TC 25 22.8000 87.0000 1 6 206
1950215N25087 1950 48 NI BB NOT_NAMED 1950-08-03 18:00:00 TS 22.5789 86.8216 main 0 0 O________OP___ jtwc_io IO081950 22.6000 86.8000 -1 22.6000 86.8000 TC 25 22.5366 86.8648 1 6 210
1950215N25087 1950 48 NI BB NOT_NAMED 1950-08-03 21:00:00 TS 22.3242 86.6699 main 0 0 P________PP___ IO081950 22.3275 86.6575 -1 22.3275 86.6575 TC 25 22.3176 86.6948 1 6 213
1950215N25087 1950 48 NI BB NOT_NAMED 1950-08-04 00:00:00 TS 22.1132 86.5008 main 0 0 O________OP___ jtwc_io IO081950 22.1000 86.5000 -1 22.1000 86.5000 TC 25 22.1397 86.5024 1 5 225
1950215N25087 1950 48 NI BB NOT_NAMED 1950-08-04 03:00:00 TS 21.9800 86.3050 main 0 0 P________PO___ IO081950 21.9700 86.3076 -1 21.9700 86.3076 TC 25 22.0000 86.3000 1 4 238
1950215N25087 1950 48 NI BB NOT_NAMED 1950-08-04 06:00:00 TS 21.8908 86.1119 main 0 0 O________OP___ jtwc_io IO081950 21.9000 86.1000 -1 21.9000 86.1000 TC 25 21.8725 86.1357 1 4 247
1950215N25087 1950 48 NI BB NOT_NAMED 1950-08-04 09:00:00 TS 21.8273 85.9251 main 0 0 P________PP___ IO081950 21.8499 85.9076 -1 21.8499 85.9076 TC 25 21.7820 85.9601 1 4 252
1950215N25087 1950 48 NI BB NOT_NAMED 1950-08-04 12:00:00 TS 21.7752 85.7181 main 0 0 O________OP___ jtwc_io IO081950 21.8000 85.7000 -1 21.8000 85.7000 TC 25 21.7255 85.7544 1 4 252
1950215N25087 1950 48 NI BB NOT_NAMED 1950-08-04 15:00:00 TS 21.6949 85.4816 main 0 0 P________PO___ IO081950 21.6924 85.4724 -1 21.6924 85.4724 TC 25 21.7000 85.5000 1 5 251
1950215N25087 1950 48 NI BB NOT_NAMED 1950-08-04 18:00:00 TS 21.6129 85.2062 main 0 0 O________OP___ jtwc_io IO081950 21.6000 85.2000 -1 21.6000 85.2000 TC 25 21.6387 85.2185 1 6 257
1950215N25087 1950 48 NI BB NOT_NAMED 1950-08-04 21:00:00 TS 21.5695 84.8906 main 0 0 P________PP___ IO081950 21.5473 84.8947 -1 21.5473 84.8947 TC 25 21.6139 84.8825 1 7 271
1950215N25087 1950 48 NI BB NOT_NAMED 1950-08-05 00:00:00 TS 21.6190 84.4934 main 0 0 O________OP___ jtwc_io IO081950 21.6000 84.5000 -1 21.6000 84.5000 TC 25 21.6571 84.4803 1 9 285
1950215N25087 1950 48 NI BB NOT_NAMED 1950-08-05 03:00:00 TS 21.7932 84.0015 main 0 0 P________PO___ IO081950 21.7898 84.0023 -1 21.7898 84.0023 TC 25 21.8000 84.0000 1 11 295
1950215N25087 1950 48 NI BB NOT_NAMED 1950-08-05 06:00:00 TS 22.0905 83.4022 main 0 0 O________OP___ jtwc_io IO081950 22.1000 83.4000 -1 22.1000 83.4000 TC 25 22.0715 83.4064 1 14 299
1950215N25087 1950 48 NI BB NOT_NAMED 1950-08-05 09:00:00 TS 22.4649 82.7134 main 0 0 P________PP___ IO081950 22.4777 82.7003 -1 22.4777 82.7003 TC 25 22.4392 82.7398 1 15 302
1950215N25087 1950 48 NI BB NOT_NAMED 1950-08-05 12:00:00 TS 22.8874 82.0177 main 0 0 O________OP___ jtwc_io IO081950 22.9000 82.0000 -1 22.9000 82.0000 TC 25 22.8621 82.0530 1 15 305
1950215N25087 1950 48 NI BB NOT_NAMED 1950-08-05 15:00:00 TS 23.2997 81.4180 main 0 0 P________PO___ IO081950 23.2995 81.4270 -1 23.2995 81.4270 TC 25 23.3000 81.4000 1 13 308
1950215N25087 1950 48 NI BB NOT_NAMED 1950-08-05 18:00:00 TS 23.7085 80.8692 main 0 0 O________OP___ jtwc_io IO081950 23.7000 80.9000 -1 23.7000 80.9000 TC 25 23.7211 80.8231 1 13 309
1950215N25087 1950 48 NI BB NOT_NAMED 1950-08-05 21:00:00 TS 24.1107 80.3387 main 0 0 P________PP___ IO081950 24.1005 80.3583 -1 24.1005 80.3583 TC 25 24.1243 80.3127 1 12 310
1950215N25087 1950 48 NI BB NOT_NAMED 1950-08-06 00:00:00 TS 24.5077 79.8230 main 0 0 O________OP___ jtwc_io IO081950 24.5000 79.8000 -1 24.5000 79.8000 TC 25 24.5154 79.8460 1 12 313
1950215N25087 1950 48 NI BB NOT_NAMED 1950-08-06 03:00:00 NR 24.9000 79.4000 main 0 __________O___ IO081950 -1 TC 24.9000 79.4000 1 11 316

IBTrACS Databaseについて

本データベースは、米国NOAAが公開する1842年以降の世界の熱帯低気圧のベストトラックデータアーカイブInternational Best Track Archive for Climate Stewardship (IBTrACS)を、ウェブで閲覧しやすい形式に変換したものです。

最終更新日:2021-10-21